Aérodrome :
LOGIN :

S'inscrire | Disclaimer

   EN    FR    IT 

 










Légende :    VFR   VFR Marginal   IFR   IFR Intensif   IFR Très Intensif
Visi : 
Plafond : 
>= 8 km
>= 3000ft
5 à 8 km
1000 à 3000 ft
1500m à 5 km
500 à 1000 ft
800 à 1500m
200 à 500 ft
< 800m
< 200 ft
Symboles :   Orages  Brouillard  Fortes neiges  Fortes précipitations  Vent > 20 kt
SIGMETs :   Divers  Orages  Givrage  Turbulence  Onde Orograph.  Cendres Volcan.







- Altitude de l'aérodrome : 242 ft
- Code IATA : DUB


EIDW - Dublin

DERNIER METAR :
  • 172300Z 28007KT 9999 FEW016 SCT250 03/03 Q1025 NOSIG

METARs EXPIRÉS :
  • 172230Z 27006KT 9999 FEW016 SCT220 04/03 Q1024 NOSIG
  • 172200Z 28008KT 9999 FEW016 BKN220 04/04 Q1024 NOSIG
  • 172130Z 29008KT 9999 FEW014 SCT150 BKN220 03/03 Q1024 NOSIG
  • 172100Z 29006KT 9999 FEW014 BKN150 BKN220 04/03 Q1024 NOSIG
  • 172030Z 28007KT 9999 FEW014 BKN150 BKN220 04/04 Q1024 NOSIG

TAF TAF EIDW
Valide du 17 à 18h jusqu'au 18 à 18h UTC


171700Z 1718/1818 31010KT 9999 FEW012 SCT040
BECMG 1718/1721 28007KT
BECMG 1800/1803 25005KT
PROB30
TEMPO 1803/1810 4000 BR
BECMG 1809/1812 22006KT
Pas de NOTAMs connus pour ce terrain.



MET'MAP, la Météo Aéronautique d'un coup d'oeil ! - Copyright ORBIFLY Décembre 2007 - Disclaimer

ORBIFLY MET'MAP TEAM :

Programmation & Développement : Alexandra Zaïnal
Conception & Développement : Baudouin d'Aumeries
Co-Programmation & Développement : Marc-Olivier Méhu
Soutien technique & logistique : Manuel Goepfert

Contact : metmap@orbifly.com




SOURCES & CREDITS :

   NOAA